Time;durP1;ratioP1;P1;durP2;ratioP2;P2;SDS_P1;SDS_P2;PMS_P1;PMS_P2;Temp;Humidity;BMP_temperature;BMP_pressure;BME280_temperature;BME280_humidity;BME280_pressure;Samples;Min_cycle;Max_cycle;Signal;HPM_P1;HPM_P2
2024/01/27 00:01:18;;;;;;;76.72;67.47;;;7.70;82.30;;;;;;12128177;29;20471;-74
2024/01/27 00:07:20;;;;;;;67.90;54.58;;;7.60;82.00;;;;;;12129097;29;20043;-74
2024/01/27 00:13:21;;;;;;;66.80;51.13;;;7.40;81.80;;;;;;12128178;29;20436;-74
2024/01/27 00:19:23;;;;;;;91.20;82.50;;;7.20;82.20;;;;;;12126911;29;20033;-74
2024/01/27 00:25:24;;;;;;;66.68;56.83;;;7.00;82.10;;;;;;12111136;29;20376;-74
2024/01/27 00:31:26;;;;;;;69.32;61.80;;;7.10;82.40;;;;;;12128000;29;20041;-74
2024/01/27 00:37:28;;;;;;;64.32;57.70;;;7.00;82.40;;;;;;12127056;29;20033;-74
2024/01/27 00:43:29;;;;;;;56.72;50.78;;;7.00;82.00;;;;;;12125654;29;20037;-74
2024/01/27 00:49:31;;;;;;;63.78;56.75;;;6.70;82.10;;;;;;12125403;29;20037;-74
2024/01/27 00:55:32;;;;;;;78.30;60.60;;;6.50;82.70;;;;;;12126337;29;20352;-75
2024/01/27 01:01:34;;;;;;;73.47;65.35;;;6.40;82.20;;;;;;12126263;29;20040;-75
2024/01/27 01:07:35;;;;;;;152.27;72.93;;;6.20;82.00;;;;;;12125703;29;20041;-74
2024/01/27 01:13:37;;;;;;;108.35;69.75;;;6.30;82.60;;;;;;12126172;29;20354;-74
2024/01/27 01:19:40;;;;;;;62.55;52.30;;;5.90;81.80;;;;;;12125260;29;20442;-75
2024/01/27 01:25:42;;;;;;;71.47;61.25;;;5.70;83.00;;;;;;12124858;29;20444;-74
2024/01/27 01:31:44;;;;;;;59.83;53.47;;;5.80;83.10;;;;;;12124682;29;20329;-74
2024/01/27 01:37:48;;;;;;;58.53;51.85;;;6.20;83.20;;;;;;12108938;29;20079;-74
2024/01/27 01:43:49;;;;;;;59.95;53.78;;;6.10;82.30;;;;;;12124256;29;20130;-74
2024/01/27 01:49:53;;;;;;;84.15;64.82;;;5.60;82.60;;;;;;12124040;29;20040;-74
2024/01/27 01:55:55;;;;;;;116.63;108.93;;;5.20;82.60;;;;;;12123763;29;20033;-75
2024/01/27 02:01:57;;;;;;;76.95;70.40;;;5.20;82.80;;;;;;12124395;29;20292;-75
2024/01/27 02:08:00;;;;;;;113.35;106.07;;;4.90;82.90;;;;;;12123283;29;20037;-74
2024/01/27 02:14:02;;;;;;;93.45;85.35;;;5.20;83.30;;;;;;12123180;29;20428;-74
2024/01/27 02:20:07;;;;;;;57.20;51.28;;;5.70;83.20;;;;;;12122953;29;20041;-74
2024/01/27 02:26:09;;;;;;;72.05;66.10;;;6.00;82.80;;;;;;12106768;29;20076;-74
2024/01/27 02:32:11;;;;;;;52.85;46.67;;;6.10;82.40;;;;;;12106007;29;20029;-74
2024/01/27 02:38:12;;;;;;;47.78;43.28;;;6.20;82.60;;;;;;12123155;29;20059;-74
2024/01/27 02:44:14;;;;;;;62.42;56.38;;;6.20;82.20;;;;;;12132000;29;20037;-74
2024/01/27 02:57:15;;;;;;;118.53;81.93;;;6.20;81.80;;;;;;12178025;29;20036;-75
2024/01/27 03:03:17;;;;;;;74.40;68.35;;;6.00;82.10;;;;;;12178370;29;20037;-75
2024/01/27 03:09:18;;;;;;;67.93;62.03;;;5.60;82.50;;;;;;12177425;29;20040;-74
2024/01/27 03:15:20;;;;;;;57.38;52.20;;;5.30;82.50;;;;;;12177257;29;20036;-75
2024/01/27 03:21:21;;;;;;;119.63;111.72;;;5.10;82.80;;;;;;12177020;29;20043;-75
2024/01/27 03:27:23;;;;;;;50.25;45.08;;;5.30;83.30;;;;;;12176630;29;20036;-74
2024/01/27 03:33:24;;;;;;;77.90;71.35;;;5.60;82.80;;;;;;12159948;29;20451;-74
2024/01/27 03:39:26;;;;;;;58.30;52.20;;;5.70;82.70;;;;;;12176366;29;20047;-74
2024/01/27 03:45:27;;;;;;;76.43;70.15;;;5.70;82.70;;;;;;12160216;29;20037;-74
2024/01/27 03:51:29;;;;;;;69.78;64.50;;;5.80;82.30;;;;;;12159243;29;20032;-75
2024/01/27 03:57:31;;;;;;;91.65;85.68;;;5.20;81.60;;;;;;12176112;29;20037;-75
2024/01/27 04:03:32;;;;;;;141.05;132.00;;;4.70;82.00;;;;;;12158566;29;20036;-75
2024/01/27 04:09:34;;;;;;;122.88;115.15;;;4.60;83.10;;;;;;12174834;29;20047;-76
2024/01/27 04:15:38;;;;;;;132.75;124.60;;;4.30;82.20;;;;;;12174659;29;20360;-75
2024/01/27 04:21:39;;;;;;;133.52;125.43;;;4.20;82.90;;;;;;12157930;29;20032;-75
2024/01/27 04:27:42;;;;;;;109.72;102.68;;;4.40;83.20;;;;;;12174106;29;20347;-75
2024/01/27 04:33:44;;;;;;;140.07;131.30;;;4.80;83.30;;;;;;12173864;29;20028;-75
2024/01/27 04:39:46;;;;;;;114.40;107.28;;;5.20;82.80;;;;;;12173569;29;20043;-75
2024/01/27 04:45:48;;;;;;;138.35;130.30;;;5.20;82.60;;;;;;12173307;29;20036;-75
2024/01/27 04:51:50;;;;;;;108.30;101.63;;;5.10;82.90;;;;;;12156245;29;20032;-75
2024/01/27 04:57:52;;;;;;;131.30;123.68;;;4.90;82.80;;;;;;12172761;29;20377;-75
2024/01/27 05:03:53;;;;;;;156.52;148.27;;;5.00;82.80;;;;;;12155334;29;20387;-76
2024/01/27 05:09:55;;;;;;;166.85;135.90;;;4.70;82.60;;;;;;12172135;29;20048;-76
2024/01/27 05:15:56;;;;;;;168.48;159.60;;;4.40;82.60;;;;;;12171944;29;20462;-75
2024/01/27 05:21:58;;;;;;;109.85;102.88;;;4.20;83.20;;;;;;12155182;29;20052;-75
2024/01/27 05:27:59;;;;;;;114.28;107.15;;;4.40;83.50;;;;;;12171329;29;20037;-75
2024/01/27 05:34:01;;;;;;;164.55;155.45;;;4.80;83.50;;;;;;12154614;29;20036;-75
2024/01/27 05:40:03;;;;;;;87.43;81.13;;;5.00;83.30;;;;;;12171462;29;20037;-76
2024/01/27 05:46:04;;;;;;;120.78;114.30;;;5.00;83.20;;;;;;12154422;29;20461;-75
2024/01/27 05:52:06;;;;;;;96.75;91.18;;;5.20;83.00;;;;;;12170637;29;20059;-75
2024/01/27 05:58:08;;;;;;;112.70;104.20;;;5.20;82.90;;;;;;12170068;29;20032;-76
2024/01/27 06:04:12;;;;;;;84.10;77.97;;;5.10;82.80;;;;;;12169877;29;20506;-75
2024/01/27 06:10:14;;;;;;;85.93;79.18;;;5.20;83.20;;;;;;12169595;29;20040;-76
2024/01/27 06:16:18;;;;;;;134.23;126.60;;;5.10;82.90;;;;;;12152308;29;20047;-76
2024/01/27 06:22:19;;;;;;;118.07;108.28;;;4.60;83.30;;;;;;12152657;29;20033;-75
2024/01/27 06:28:21;;;;;;;115.15;109.03;;;4.40;83.50;;;;;;12169109;29;20047;-75
2024/01/27 06:34:22;;;;;;;116.55;109.90;;;4.40;83.60;;;;;;12168980;29;20039;-75
2024/01/27 06:40:24;;;;;;;129.00;122.35;;;4.50;83.70;;;;;;12168847;29;20036;-75
2024/01/27 06:46:25;;;;;;;104.90;97.03;;;4.60;83.70;;;;;;12168536;29;20040;-75
2024/01/27 06:52:28;;;;;;;93.85;86.47;;;5.00;84.00;;;;;;12169227;29;20478;-75
2024/01/27 06:58:29;;;;;;;140.18;132.73;;;5.00;83.60;;;;;;12168517;29;20032;-75
2024/01/27 07:04:32;;;;;;;130.38;119.18;;;4.80;83.60;;;;;;12168414;29;20044;-75
2024/01/27 07:10:35;;;;;;;117.30;111.03;;;5.10;83.70;;;;;;12170274;29;20033;-75
2024/01/27 07:16:37;;;;;;;142.68;131.65;;;5.00;83.80;;;;;;12168137;29;20040;-75
2024/01/27 07:22:38;;;;;;;100.78;93.95;;;4.80;83.40;;;;;;12168178;29;20046;-75
2024/01/27 07:28:40;;;;;;;120.05;111.22;;;4.80;84.20;;;;;;12158717;29;20451;-75
2024/01/27 07:34:43;;;;;;;138.50;125.82;;;4.90;84.10;;;;;;12176535;29;20028;-75
2024/01/27 07:40:45;;;;;;;116.30;109.57;;;4.90;84.30;;;;;;12174918;29;20032;-75
2024/01/27 07:46:47;;;;;;;37.58;33.55;;;5.10;84.80;;;;;;12170143;29;20044;-75
2024/01/27 07:52:48;;;;;;;62.90;59.08;;;5.20;84.50;;;;;;12174174;29;20033;-75
2024/01/27 07:58:50;;;;;;;106.95;101.43;;;5.20;84.30;;;;;;12176612;29;20039;-75
2024/01/27 08:04:51;;;;;;;115.78;110.03;;;5.00;84.30;;;;;;12176143;29;20466;-75
2024/01/27 08:10:53;;;;;;;88.65;82.38;;;4.90;84.30;;;;;;12175420;29;20036;-75
2024/01/27 08:16:55;;;;;;;77.78;72.18;;;4.90;84.40;;;;;;12171958;29;20036;-74
2024/01/27 08:22:57;;;;;;;36.53;33.25;;;5.10;84.70;;;;;;12115394;29;20060;-74
2024/01/27 08:28:59;;;;;;;50.60;42.97;;;5.20;84.50;;;;;;12128263;29;20348;-74
2024/01/27 08:35:02;;;;;;;59.92;54.72;;;5.20;84.60;;;;;;12126360;29;20036;-74
2024/01/27 08:41:03;;;;;;;51.63;45.38;;;5.10;84.40;;;;;;12126351;29;20040;-74
2024/01/27 08:47:06;;;;;;;100.13;93.10;;;4.90;84.70;;;;;;12127231;29;20033;-74
2024/01/27 08:53:07;;;;;;;93.43;85.32;;;4.90;85.00;;;;;;12126640;29;20368;-73
2024/01/27 08:59:09;;;;;;;46.15;41.33;;;5.00;85.30;;;;;;12127152;29;20345;-73
2024/01/27 09:05:10;;;;;;;43.75;39.47;;;5.30;85.20;;;;;;12126594;29;20040;-73
2024/01/27 09:11:12;;;;;;;49.78;42.45;;;5.40;85.30;;;;;;12126163;29;20036;-73
2024/01/27 09:17:14;;;;;;;39.35;35.42;;;5.50;85.40;;;;;;12126535;29;20033;-73
2024/01/27 09:23:16;;;;;;;51.78;46.50;;;5.60;85.40;;;;;;12124980;29;20037;-73
2024/01/27 09:29:31;;;;;;;51.75;46.83;;;5.60;85.40;;;;;;12109367;29;20033;-73
2024/01/27 09:35:32;;;;;;;43.95;39.55;;;5.80;85.50;;;;;;12124167;29;20033;-73
2024/01/27 09:41:34;;;;;;;57.75;52.47;;;5.80;85.30;;;;;;12108217;29;20040;-73
2024/01/27 09:47:38;;;;;;;41.97;37.65;;;5.60;85.50;;;;;;12124602;29;20449;-73
2024/01/27 09:53:40;;;;;;;50.97;46.50;;;5.70;85.50;;;;;;12124625;29;20036;-73
2024/01/27 09:59:44;;;;;;;54.95;49.85;;;5.70;85.80;;;;;;12124309;29;20352;-73
2024/01/27 10:05:52;;;;;;;56.55;50.97;;;5.60;85.80;;;;;;12123484;29;20048;-73
2024/01/27 10:11:57;;;;;;;57.43;50.17;;;5.70;86.00;;;;;;12123404;29;20040;-74
2024/01/27 10:18:08;;;;;;;46.05;41.25;;;5.80;86.00;;;;;;12123692;29;20041;-73
2024/01/27 10:24:10;;;;;;;57.38;52.08;;;5.90;86.10;;;;;;12122945;29;20045;-74
2024/01/27 10:30:31;;;;;;;38.97;34.80;;;5.90;86.20;;;;;;12122728;29;20037;-74
2024/01/27 10:44:02;;;;;;;57.92;51.90;;;6.00;86.30;;;;;;12122464;29;20033;-74
2024/01/27 10:50:09;;;;;;;44.45;38.78;;;6.10;86.30;;;;;;12143609;24;20047;-74
2024/01/27 10:56:11;;;;;;;54.72;46.53;;;6.10;86.30;;;;;;12151402;29;20035;-74
2024/01/27 11:02:14;;;;;;;82.97;74.78;;;6.20;86.60;;;;;;12174038;29;20036;-74
2024/01/27 11:08:17;;;;;;;80.18;72.75;;;6.30;86.50;;;;;;12176473;29;20478;-74
2024/01/27 11:14:19;;;;;;;73.18;55.58;;;6.20;86.70;;;;;;12177770;29;20044;-74
2024/01/27 11:20:23;;;;;;;54.42;43.55;;;6.20;86.60;;;;;;12160479;29;20051;-74
2024/01/27 11:26:25;;;;;;;62.42;49.75;;;6.40;86.70;;;;;;12176600;29;20447;-74
2024/01/27 11:32:27;;;;;;;73.05;64.93;;;6.40;86.60;;;;;;12176797;29;20048;-74
2024/01/27 11:38:31;;;;;;;64.00;51.15;;;6.40;86.30;;;;;;12177739;29;20428;-74
2024/01/27 11:44:36;;;;;;;66.60;55.78;;;6.30;86.50;;;;;;12176186;29;20351;-74
2024/01/27 11:50:38;;;;;;;61.85;48.08;;;6.30;86.50;;;;;;12159303;29;20355;-74
2024/01/27 11:56:40;;;;;;;95.20;69.93;;;6.40;86.40;;;;;;12175727;29;20044;-74
2024/01/27 12:02:41;;;;;;;79.32;70.80;;;6.50;86.70;;;;;;12175417;29;20048;-74
2024/01/27 12:08:47;;;;;;;94.75;67.35;;;6.50;86.80;;;;;;12175018;29;20044;-74
2024/01/27 12:14:50;;;;;;;82.07;65.43;;;6.60;87.00;;;;;;12157912;29;20041;-74
2024/01/27 12:21:01;;;;;;;59.60;45.97;;;6.60;86.90;;;;;;12174521;29;20351;-74
2024/01/27 12:27:03;;;;;;;70.07;52.25;;;6.60;87.10;;;;;;12174255;29;20033;-74
2024/01/27 12:33:12;;;;;;;81.30;60.20;;;6.70;87.10;;;;;;12174060;29;20028;-74
2024/01/27 12:39:14;;;;;;;78.93;67.20;;;6.70;86.90;;;;;;12173749;29;20435;-75
2024/01/27 12:45:15;;;;;;;73.43;54.63;;;6.70;87.20;;;;;;12173289;29;20044;-74
2024/01/27 12:51:22;;;;;;;73.18;63.60;;;6.80;87.30;;;;;;12173081;29;20466;-74
2024/01/27 12:57:24;;;;;;;63.90;54.92;;;6.90;87.50;;;;;;12172935;29;20032;-74
2024/01/27 13:04:43;;;;;;;82.30;63.25;;;6.90;87.40;;;;;;12172698;29;20033;-74
2024/01/27 13:10:57;;;;;;;82.63;63.60;;;7.00;87.20;;;;;;12172920;29;20029;-74
2024/01/27 13:16:59;;;;;;;79.45;52.45;;;7.00;87.50;;;;;;12172029;29;20033;-74
2024/01/27 13:23:00;;;;;;;105.40;68.80;;;7.10;87.40;;;;;;12171332;29;20041;-74
2024/01/27 13:29:02;;;;;;;85.88;67.72;;;7.20;87.30;;;;;;12171352;29;20035;-74
2024/01/27 13:35:04;;;;;;;67.78;56.40;;;7.20;87.30;;;;;;12141014;29;20033;-74
2024/01/27 13:41:17;;;;;;;83.60;66.03;;;7.30;87.20;;;;;;12125038;29;20036;-73
2024/01/27 13:47:19;;;;;;;77.25;67.57;;;7.30;87.00;;;;;;12124184;29;20032;-74
2024/01/27 13:53:21;;;;;;;61.22;50.13;;;7.40;87.10;;;;;;12107861;29;20372;-73
2024/01/27 13:59:22;;;;;;;78.90;69.82;;;7.20;86.90;;;;;;12123775;29;20360;-73
2024/01/27 14:05:24;;;;;;;62.40;55.30;;;7.20;87.20;;;;;;12123443;29;20037;-73
2024/01/27 14:11:27;;;;;;;73.07;65.60;;;7.30;87.30;;;;;;12123387;29;20029;-74
2024/01/27 14:17:30;;;;;;;76.90;56.22;;;7.30;87.20;;;;;;12122043;29;20036;-74
2024/01/27 14:23:31;;;;;;;66.32;59.05;;;7.20;87.10;;;;;;12123031;29;20444;-73
2024/01/27 14:29:36;;;;;;;80.30;71.75;;;7.30;87.00;;;;;;12123430;29;20089;-74
2024/01/27 14:35:39;;;;;;;78.93;59.75;;;7.20;87.20;;;;;;12123538;29;20057;-74
2024/01/27 14:41:40;;;;;;;57.15;41.67;;;7.30;87.10;;;;;;12123227;29;20051;-74
2024/01/27 14:47:42;;;;;;;55.90;41.50;;;7.20;86.90;;;;;;12122312;29;20040;-73
2024/01/27 14:53:45;;;;;;;63.53;42.13;;;7.20;86.80;;;;;;12121115;29;20044;-74
2024/01/27 14:59:49;;;;;;;62.10;41.95;;;7.10;87.10;;;;;;12105782;29;20041;-74
2024/01/27 15:05:53;;;;;;;67.35;46.58;;;7.20;87.00;;;;;;12106134;29;20037;-74
2024/01/27 15:11:55;;;;;;;54.30;33.53;;;7.20;87.00;;;;;;12105335;29;20475;-74
2024/01/27 15:18:00;;;;;;;71.05;47.42;;;7.10;86.90;;;;;;12121813;29;20037;-74
2024/01/27 15:24:22;;;;;;;58.55;40.22;;;7.10;87.20;;;;;;12121730;29;20041;-74
2024/01/27 15:30:24;;;;;;;62.33;45.17;;;7.10;86.90;;;;;;12075142;29;20052;-74
2024/01/27 15:36:25;;;;;;;58.53;39.05;;;6.90;86.90;;;;;;12121691;29;20041;-74
2024/01/27 15:42:27;;;;;;;81.13;55.38;;;6.90;87.20;;;;;;12125002;29;20040;-74
2024/01/27 15:48:30;;;;;;;64.32;41.00;;;7.00;87.30;;;;;;12173336;29;20095;-74
2024/01/27 15:54:58;;;;;;;55.88;48.70;;;7.00;86.90;;;;;;12176007;29;20444;-74
2024/01/27 16:00:59;;;;;;;46.47;37.45;;;6.90;87.20;;;;;;12158878;29;20033;-73
2024/01/27 16:07:01;;;;;;;41.55;36.40;;;6.90;87.10;;;;;;12175163;29;20040;-74
2024/01/27 16:13:03;;;;;;;40.92;28.45;;;6.70;87.10;;;;;;12168490;29;20352;-74
2024/01/27 16:19:11;;;;;;;47.97;37.67;;;6.70;87.20;;;;;;12171508;29;20032;-74
2024/01/27 16:25:18;;;;;;;88.60;56.30;;;6.60;87.00;;;;;;12158345;29;20391;-74
2024/01/27 16:31:20;;;;;;;98.68;60.53;;;6.50;86.90;;;;;;12173533;29;20040;-73
2024/01/27 16:37:22;;;;;;;76.97;52.10;;;6.30;86.90;;;;;;12173436;29;20040;-73
2024/01/27 16:43:24;;;;;;;66.72;51.53;;;6.20;86.90;;;;;;12175281;29;20140;-73
2024/01/27 16:49:32;;;;;;;60.85;54.78;;;6.10;86.90;;;;;;12173378;29;20064;-73
2024/01/27 16:55:34;;;;;;;67.13;46.33;;;6.00;86.80;;;;;;12172075;29;20028;-73
2024/01/27 17:01:36;;;;;;;58.70;43.65;;;5.90;86.90;;;;;;12172852;29;20033;-73
2024/01/27 17:07:38;;;;;;;36.67;31.48;;;5.90;87.00;;;;;;12171929;29;20051;-73
2024/01/27 17:13:39;;;;;;;73.85;59.97;;;6.10;87.00;;;;;;12172258;29;20036;-73
2024/01/27 17:19:49;;;;;;;57.42;44.33;;;6.10;87.00;;;;;;12171919;29;20032;-73
2024/01/27 17:25:51;;;;;;;47.10;41.58;;;6.40;86.80;;;;;;12154930;29;20048;-73
2024/01/27 17:31:52;;;;;;;54.55;45.40;;;6.40;86.60;;;;;;12154746;29;20029;-73
2024/01/27 17:37:54;;;;;;;49.00;36.50;;;6.40;86.60;;;;;;12155465;29;20071;-73
2024/01/27 17:43:56;;;;;;;50.13;42.83;;;6.50;86.60;;;;;;12154259;29;20161;-73
2024/01/27 17:49:57;;;;;;;56.03;46.45;;;6.40;86.60;;;;;;12169287;29;20045;-73
2024/01/27 17:56:00;;;;;;;51.45;44.28;;;6.50;86.70;;;;;;12154365;29;20463;-73
2024/01/27 18:02:02;;;;;;;62.33;49.58;;;6.40;86.50;;;;;;12170142;29;20036;-73
2024/01/27 18:08:04;;;;;;;55.25;43.83;;;6.20;86.70;;;;;;12169784;29;20037;-73
2024/01/27 18:14:06;;;;;;;70.88;63.92;;;6.20;86.40;;;;;;12153044;29;20036;-73
2024/01/27 18:20:09;;;;;;;55.67;49.97;;;6.00;86.30;;;;;;12168268;29;20040;-73
2024/01/27 18:26:13;;;;;;;61.55;50.65;;;6.00;86.40;;;;;;12116451;29;20048;-73
2024/01/27 18:32:19;;;;;;;58.55;52.40;;;5.90;86.40;;;;;;12122091;29;20025;-73
2024/01/27 18:38:21;;;;;;;37.83;33.58;;;5.90;86.30;;;;;;12106870;29;20036;-73
2024/01/27 18:44:23;;;;;;;84.30;72.32;;;5.80;86.40;;;;;;12121344;29;20044;-74
2024/01/27 18:50:25;;;;;;;52.28;46.67;;;5.70;86.10;;;;;;12128658;23;20060;-73
2024/01/27 18:56:27;;;;;;;40.50;36.35;;;5.40;86.00;;;;;;12122169;29;20037;-73
2024/01/27 19:02:29;;;;;;;43.90;39.90;;;5.20;86.30;;;;;;12090581;29;20456;-73
2024/01/27 19:08:40;;;;;;;37.67;33.75;;;5.20;86.30;;;;;;12090295;29;20049;-73
2024/01/27 19:14:42;;;;;;;42.75;38.17;;;5.10;86.20;;;;;;12121831;29;20040;-73
2024/01/27 19:20:43;;;;;;;45.42;34.90;;;5.10;86.40;;;;;;12123040;29;20033;-74
2024/01/27 19:26:45;;;;;;;46.58;42.55;;;5.20;86.20;;;;;;12130402;29;20041;-73
2024/01/27 19:32:47;;;;;;;58.60;53.13;;;5.20;86.10;;;;;;12130235;29;20033;-73
2024/01/27 19:38:49;;;;;;;69.55;62.45;;;5.10;86.20;;;;;;12130777;29;20041;-73
2024/01/27 19:44:50;;;;;;;66.68;58.65;;;5.30;86.10;;;;;;12130327;29;20033;-73
2024/01/27 19:50:52;;;;;;;46.83;42.13;;;5.60;85.80;;;;;;12112860;29;20380;-73
2024/01/27 19:56:54;;;;;;;59.13;53.30;;;5.60;85.50;;;;;;12129119;29;20045;-73
2024/01/27 20:02:56;;;;;;;49.70;44.10;;;5.60;85.30;;;;;;12128933;29;20356;-74
2024/01/27 20:08:57;;;;;;;54.40;48.13;;;5.60;85.00;;;;;;12129124;29;20036;-73
2024/01/27 20:14:59;;;;;;;52.22;46.85;;;5.50;84.80;;;;;;12096710;29;20044;-73
2024/01/27 20:21:01;;;;;;;51.67;46.45;;;5.50;84.60;;;;;;12128064;29;20380;-73
2024/01/27 20:27:04;;;;;;;44.53;40.03;;;5.50;84.80;;;;;;12127773;29;20036;-73
2024/01/27 20:33:07;;;;;;;38.75;35.15;;;5.40;84.70;;;;;;12127195;29;20036;-73
2024/01/27 20:39:09;;;;;;;52.47;47.33;;;5.20;84.70;;;;;;12126238;29;20033;-73
2024/01/27 20:45:10;;;;;;;40.92;36.80;;;5.20;84.60;;;;;;12111141;29;20460;-73
2024/01/27 20:51:12;;;;;;;64.40;58.33;;;5.20;84.60;;;;;;12126964;29;20029;-73
2024/01/27 20:57:14;;;;;;;48.97;44.78;;;5.20;84.50;;;;;;12126924;29;20033;-75
2024/01/27 21:03:19;;;;;;;47.25;43.55;;;5.20;84.40;;;;;;12127107;29;20040;-74
2024/01/27 21:09:22;;;;;;;41.33;37.67;;;5.00;84.40;;;;;;12126063;29;20444;-74
2024/01/27 21:15:25;;;;;;;43.72;39.70;;;4.70;84.80;;;;;;12124868;29;20056;-74
2024/01/27 21:21:26;;;;;;;46.72;43.08;;;4.80;84.90;;;;;;12125606;29;20040;-74
2024/01/27 21:27:28;;;;;;;34.80;31.50;;;4.70;84.50;;;;;;12124071;29;20044;-74
2024/01/27 21:33:31;;;;;;;46.78;42.35;;;4.40;84.80;;;;;;12125003;29;20025;-74
2024/01/27 21:39:34;;;;;;;47.55;43.97;;;4.30;85.00;;;;;;12124630;29;20033;-74
2024/01/27 21:45:35;;;;;;;50.45;46.25;;;4.20;84.90;;;;;;12124282;29;20325;-74
2024/01/27 21:51:37;;;;;;;55.30;50.75;;;4.10;85.10;;;;;;12124395;29;20032;-74
2024/01/27 21:57:39;;;;;;;34.67;31.52;;;4.10;85.20;;;;;;12123995;29;20044;-74
2024/01/27 22:03:42;;;;;;;43.38;39.25;;;4.10;85.10;;;;;;12123750;29;20041;-74
2024/01/27 22:09:58;;;;;;;38.03;34.75;;;4.10;85.20;;;;;;12123494;29;20048;-74
2024/01/27 22:16:00;;;;;;;35.92;32.65;;;4.00;85.20;;;;;;12122284;29;20076;-74
2024/01/27 22:22:02;;;;;;;33.63;30.65;;;3.90;85.10;;;;;;12122092;29;20037;-74
2024/01/27 22:28:05;;;;;;;37.30;33.95;;;3.90;85.20;;;;;;12123631;29;20028;-74
2024/01/27 22:34:07;;;;;;;35.67;31.95;;;3.70;85.00;;;;;;12123575;29;20032;-74
2024/01/27 22:40:11;;;;;;;34.00;30.77;;;3.70;85.20;;;;;;12107350;29;20479;-74
2024/01/27 22:46:13;;;;;;;39.83;35.83;;;3.70;85.20;;;;;;12122716;29;20041;-74
2024/01/27 22:52:20;;;;;;;39.15;35.30;;;3.60;85.20;;;;;;12121525;29;20033;-74
2024/01/27 22:58:32;;;;;;;36.97;33.33;;;3.60;85.10;;;;;;12128263;29;20033;-75
2024/01/27 23:04:33;;;;;;;46.75;41.78;;;3.50;85.00;;;;;;12131552;29;20040;-74
2024/01/27 23:10:36;;;;;;;31.17;27.85;;;3.40;85.10;;;;;;12131351;29;20087;-74
2024/01/27 23:16:38;;;;;;;35.10;29.95;;;3.30;85.10;;;;;;12131137;29;20029;-75
2024/01/27 23:22:39;;;;;;;26.05;23.10;;;3.40;85.20;;;;;;12115155;29;20367;-75
2024/01/27 23:28:43;;;;;;;32.90;25.90;;;3.40;85.20;;;;;;12130592;29;20044;-74
2024/01/27 23:34:45;;;;;;;30.42;27.15;;;3.40;85.20;;;;;;12130341;29;20052;-75
2024/01/27 23:40:47;;;;;;;31.83;28.38;;;3.40;85.10;;;;;;12129518;29;20037;-75
2024/01/27 23:46:49;;;;;;;28.50;25.58;;;3.40;85.10;;;;;;12130220;29;20047;-75
2024/01/27 23:52:50;;;;;;;37.47;30.63;;;3.30;85.10;;;;;;12113946;29;20044;-75
2024/01/27 23:58:52;;;;;;;29.02;24.80;;;3.30;85.20;;;;;;12128684;29;20036;-75
